Cove Gap, West Virginia
Current Conditions -  °F | °C
As of 11:51 PM on Monday 20 Oct 2014 (Local Time) from KHTS Reporting Station
Scattered Clouds Scattered Clouds  
Wind Chill: 51°   Ceiling: Unl
Heat Index: 51°   Visibility: 10mi
Dew Point: 48°   Wind: 3mph
Humidity: 89%   Direction: 170°S
Pressure: 29.93"   Gusts: NA
Location:  38.0696°N, 82.2646°W
Report Text: KHTS 210351Z 17003KT 10SM SCT120 11/09 A2993 RMK AO2 SLP133 T01060089
Loading
Personal Weather Stations






























Interactive Weather Map
Tropical Storm Tracking
New forecast layout! Learn more

10-Day Weather Forecast

Advertisements
Track Severe Weather on mobile